createdAt,value
2024-02-14T00:01:56.394Z,74.30
2024-02-14T00:04:25.169Z,74.13
2024-02-14T00:08:14.812Z,74.22
2024-02-14T00:11:24.651Z,74.43
2024-02-14T00:14:59.497Z,74.28
2024-02-14T00:18:02.498Z,74.58
2024-02-14T00:25:33.726Z,74.51
2024-02-14T00:31:54.247Z,74.70
2024-02-14T00:34:51.731Z,74.52
2024-02-14T00:38:29.670Z,74.53
2024-02-14T00:43:06.830Z,74.77
2024-02-14T00:46:08.947Z,74.64
2024-02-14T00:49:30.851Z,74.40
2024-02-14T00:52:31.889Z,74.95
2024-02-14T00:55:33.760Z,74.75
2024-02-14T00:59:05.231Z,74.97
2024-02-14T01:02:31.762Z,74.68
2024-02-14T01:05:00.621Z,74.69
2024-02-14T01:07:30.141Z,74.72
2024-02-14T01:09:58.828Z,74.63
2024-02-14T01:12:27.339Z,74.70
2024-02-14T01:14:57.752Z,74.46
2024-02-14T01:17:26.519Z,74.59
2024-02-14T01:19:54.839Z,74.63
2024-02-14T01:22:25.809Z,74.60
2024-02-14T01:24:55.595Z,74.37
2024-02-14T01:27:24.064Z,74.35
2024-02-14T01:29:52.430Z,74.64
2024-02-14T01:32:20.778Z,74.75
2024-02-14T01:34:49.367Z,74.44
2024-02-14T01:37:18.327Z,74.91
2024-02-14T01:39:47.132Z,74.61
2024-02-14T01:42:15.882Z,74.72
2024-02-14T01:44:45.550Z,74.79
2024-02-14T01:47:14.658Z,74.95
2024-02-14T01:50:16.821Z,75.01
2024-02-14T01:56:31.827Z,74.55
2024-02-14T01:59:54.721Z,74.57
2024-02-14T02:02:29.564Z,74.71
2024-02-14T02:05:01.084Z,74.44
2024-02-14T02:07:29.937Z,74.84
2024-02-14T02:10:04.353Z,74.70
2024-02-14T02:12:33.802Z,74.50
2024-02-14T02:15:02.745Z,74.63
2024-02-14T02:17:35.786Z,74.53
2024-02-14T02:20:06.944Z,74.83
2024-02-14T02:22:36.856Z,74.57
2024-02-14T02:25:09.057Z,74.66
2024-02-14T02:27:39.252Z,74.82
2024-02-14T02:30:09.692Z,74.65
2024-02-14T02:32:39.142Z,74.74
2024-02-14T02:35:07.952Z,75.13
2024-02-14T02:37:37.427Z,74.89
2024-02-14T02:40:06.679Z,75.05
2024-02-14T02:42:35.961Z,75.09
2024-02-14T02:45:06.961Z,75.13
2024-02-14T02:47:35.760Z,74.96
2024-02-14T02:50:04.917Z,75.13
2024-02-14T02:52:33.669Z,75.10
2024-02-14T02:55:02.621Z,75.16
2024-02-14T02:57:33.538Z,75.25
2024-02-14T03:00:02.059Z,75.39
2024-02-14T03:02:31.814Z,75.38
2024-02-14T03:05:01.532Z,75.75
2024-02-14T03:07:30.094Z,75.68
2024-02-14T03:09:58.765Z,76.13
2024-02-14T03:15:51.062Z,75.54
2024-02-14T03:19:01.081Z,76.03
2024-02-14T03:22:10.813Z,75.89
2024-02-14T03:24:41.271Z,75.94
2024-02-14T03:30:54.127Z,75.90
2024-02-14T03:34:24.812Z,75.90
2024-02-14T03:37:55.948Z,76.21
2024-02-14T03:41:00.675Z,76.08
2024-02-14T03:43:37.861Z,75.76
2024-02-14T03:46:09.111Z,75.70
2024-02-14T03:48:38.086Z,75.68
2024-02-14T03:51:07.595Z,75.75
2024-02-14T03:53:43.923Z,75.87
2024-02-14T03:56:14.022Z,75.76
2024-02-14T03:58:42.705Z,75.68
2024-02-14T04:01:13.546Z,75.74
2024-02-14T04:03:43.581Z,75.55
2024-02-14T04:06:15.230Z,75.75
2024-02-14T04:08:54.466Z,75.64
2024-02-14T04:11:57.105Z,75.98
2024-02-14T04:15:08.942Z,75.64
2024-02-14T04:18:24.685Z,75.40
2024-02-14T04:22:00.250Z,75.32
2024-02-14T04:25:02.531Z,75.41
2024-02-14T04:28:14.181Z,75.50
2024-02-14T04:31:45.017Z,75.55
2024-02-14T04:35:06.137Z,75.47
2024-02-14T04:38:39.050Z,75.08
2024-02-14T04:42:09.125Z,75.44
2024-02-14T04:45:40.905Z,75.20
2024-02-14T04:48:14.828Z,74.97
2024-02-14T04:51:18.122Z,75.13
2024-02-14T04:54:08.903Z,75.17
2024-02-14T04:56:40.093Z,74.89
2024-02-14T04:59:10.215Z,75.01
2024-02-14T05:01:42.284Z,75.07
2024-02-14T05:05:20.982Z,75.14
2024-02-14T05:08:41.188Z,75.10
2024-02-14T05:11:43.086Z,75.06
2024-02-14T05:14:42.159Z,74.82
2024-02-14T05:17:10.819Z,74.80
2024-02-14T05:19:47.770Z,75.02
2024-02-14T05:22:17.146Z,74.65
2024-02-14T05:28:29.828Z,74.70
2024-02-14T05:31:18.785Z,74.82
2024-02-14T05:34:42.319Z,74.78
2024-02-14T05:41:06.269Z,74.82
2024-02-14T05:54:58.271Z,74.27
2024-02-14T05:58:00.719Z,74.65
2024-02-14T06:00:37.536Z,74.84
2024-02-14T06:03:41.965Z,75.17
2024-02-14T06:06:48.791Z,75.33
2024-02-14T06:09:50.997Z,75.40
2024-02-14T06:13:06.903Z,75.10
2024-02-14T06:16:13.675Z,75.25
2024-02-14T06:19:20.383Z,75.46
2024-02-14T06:26:12.639Z,75.76
2024-02-14T06:29:10.165Z,75.66
2024-02-14T06:31:42.396Z,75.82
2024-02-14T06:35:21.395Z,75.54
2024-02-14T06:39:06.098Z,75.56
2024-02-14T06:45:46.818Z,75.30
2024-02-14T06:55:58.032Z,75.17
2024-02-14T06:59:11.703Z,75.30
2024-02-14T07:02:35.797Z,75.42
2024-02-14T07:05:49.241Z,75.02
2024-02-14T07:09:43.031Z,75.40
2024-02-14T07:13:26.771Z,75.25
2024-02-14T07:16:54.664Z,75.11
2024-02-14T07:19:44.274Z,75.14
2024-02-14T07:28:34.850Z,74.81
2024-02-14T07:33:12.904Z,74.95
2024-02-14T07:36:58.032Z,75.07
2024-02-14T07:44:35.215Z,74.85
2024-02-14T07:47:40.818Z,75.04
2024-02-14T07:55:53.140Z,74.85
2024-02-14T08:04:05.740Z,75.14
2024-02-14T08:15:00.168Z,75.82
2024-02-14T08:18:47.791Z,75.77
2024-02-14T08:26:50.407Z,75.39
2024-02-14T08:35:00.906Z,75.00
2024-02-14T08:39:50.313Z,75.17
2024-02-14T08:43:31.439Z,75.64
2024-02-14T08:47:18.607Z,75.14
2024-02-14T08:50:41.085Z,74.87
2024-02-14T08:55:39.050Z,74.63
2024-02-14T09:02:48.796Z,73.84
2024-02-14T09:05:34.098Z,73.50
2024-02-14T09:08:25.329Z,73.00
2024-02-14T09:11:27.426Z,72.60
2024-02-14T09:16:44.192Z,72.32
2024-02-14T09:21:11.037Z,71.60
2024-02-14T09:25:34.335Z,70.88
2024-02-14T09:32:22.260Z,69.94
2024-02-14T09:36:10.035Z,69.60
2024-02-14T09:39:36.135Z,69.27
2024-02-14T09:43:18.833Z,68.83
2024-02-14T09:46:37.331Z,68.10
2024-02-14T09:53:59.336Z,67.28
2024-02-14T09:57:41.065Z,66.43
2024-02-14T10:01:16.282Z,65.71
2024-02-14T10:05:13.919Z,64.27
2024-02-14T10:09:04.019Z,64.20
2024-02-14T10:12:41.073Z,62.77
2024-02-14T10:16:29.144Z,62.37
2024-02-14T10:26:44.394Z,61.48
2024-02-14T10:32:50.530Z,60.29
2024-02-14T10:36:54.180Z,59.87
2024-02-14T10:40:24.774Z,60.05
2024-02-14T10:45:03.468Z,59.42
2024-02-14T10:48:18.581Z,59.04
2024-02-14T10:51:40.782Z,58.59
2024-02-14T10:54:44.225Z,58.25
2024-02-14T10:58:05.083Z,58.02
2024-02-14T11:01:24.378Z,58.50
2024-02-14T11:05:06.197Z,57.59
2024-02-14T11:08:50.055Z,58.04
2024-02-14T11:15:26.431Z,57.69
2024-02-14T11:23:00.307Z,57.33
2024-02-14T11:26:17.157Z,57.31
2024-02-14T11:33:05.197Z,56.15
2024-02-14T11:36:17.856Z,55.82
2024-02-14T11:39:52.287Z,55.28
2024-02-14T11:43:32.043Z,55.36
2024-02-14T11:53:51.454Z,55.04
2024-02-14T11:57:27.287Z,55.07
2024-02-14T11:59:59.688Z,55.51
2024-02-14T12:06:13.315Z,55.19
2024-02-14T12:09:49.485Z,55.45
2024-02-14T12:12:29.927Z,55.04
2024-02-14T12:15:03.015Z,55.20
2024-02-14T12:18:10.238Z,55.27
2024-02-14T12:21:23.203Z,55.02
2024-02-14T12:24:26.983Z,55.50
2024-02-14T12:27:35.608Z,55.42
2024-02-14T12:30:21.810Z,55.20
2024-02-14T12:33:52.374Z,55.11
2024-02-14T12:36:51.539Z,55.34
2024-02-14T12:39:31.958Z,55.30
2024-02-14T12:42:03.709Z,55.53
2024-02-14T12:44:47.534Z,55.01
2024-02-14T12:47:52.179Z,54.69
2024-02-14T12:50:54.648Z,54.58
2024-02-14T12:53:28.178Z,54.19
2024-02-14T12:56:30.646Z,54.24
2024-02-14T12:59:22.117Z,54.43
2024-02-14T13:02:02.219Z,54.79
2024-02-14T13:08:32.496Z,54.60
2024-02-14T13:14:55.478Z,53.75
2024-02-14T13:18:08.340Z,53.32
2024-02-14T13:21:13.306Z,53.35
2024-02-14T13:24:27.450Z,53.33
2024-02-14T13:30:25.498Z,53.31
2024-02-14T13:33:13.813Z,53.74
2024-02-14T13:35:46.005Z,53.74
2024-02-14T13:38:15.228Z,53.44
2024-02-14T13:41:17.559Z,53.14
2024-02-14T13:43:55.171Z,53.40
2024-02-14T13:47:00.361Z,53.13
2024-02-14T13:49:32.822Z,52.93
2024-02-14T13:52:13.864Z,52.95
2024-02-14T13:54:53.422Z,53.56
2024-02-14T13:57:25.188Z,53.58
2024-02-14T14:00:13.438Z,53.51
2024-02-14T14:02:45.358Z,54.17
2024-02-14T14:05:17.565Z,54.14
2024-02-14T14:07:57.839Z,54.52
2024-02-14T14:10:30.946Z,54.28
2024-02-14T14:16:39.878Z,54.48
2024-02-14T14:19:10.016Z,54.55
2024-02-14T14:21:39.772Z,54.66
2024-02-14T15:07:52.408Z,54.06
2024-02-14T15:12:28.682Z,55.08
2024-02-14T15:17:14.254Z,55.55
2024-02-14T15:31:12.189Z,57.05
2024-02-14T15:35:47.727Z,57.38
2024-02-14T15:49:55.890Z,58.57
2024-02-14T15:54:28.627Z,58.94
2024-02-14T15:59:10.662Z,59.25
2024-02-14T16:03:56.656Z,59.50
2024-02-14T16:31:14.014Z,61.01
2024-02-14T16:53:21.044Z,62.50
2024-02-14T16:58:11.310Z,62.92
2024-02-14T17:03:34.690Z,63.08
2024-02-14T17:08:26.506Z,63.60
2024-02-14T17:18:44.418Z,64.06
2024-02-14T17:35:46.647Z,65.03
2024-02-14T17:44:59.354Z,65.10
2024-02-14T17:53:28.713Z,65.27
2024-02-14T17:56:30.573Z,65.54
2024-02-14T18:00:03.040Z,65.53
2024-02-14T18:03:50.879Z,65.84
2024-02-14T18:10:32.200Z,65.84
2024-02-14T18:13:07.381Z,65.82
2024-02-14T18:16:24.986Z,65.79
2024-02-14T18:20:07.547Z,66.00
2024-02-14T18:26:00.413Z,66.08
2024-02-14T18:29:38.964Z,66.06
2024-02-14T18:33:20.037Z,66.24
2024-02-14T18:36:57.878Z,66.35
2024-02-14T18:40:14.420Z,66.65
2024-02-14T18:46:23.687Z,66.83
2024-02-14T18:56:24.843Z,66.84
2024-02-14T19:03:49.829Z,67.24
2024-02-14T19:13:27.250Z,67.15
2024-02-14T19:17:28.166Z,66.98
2024-02-14T19:37:18.458Z,68.00
2024-02-14T19:42:00.429Z,68.04
2024-02-14T19:46:14.830Z,68.44
2024-02-14T19:50:23.622Z,68.72
2024-02-14T19:58:33.741Z,68.54
2024-02-14T20:13:39.016Z,68.21
2024-02-14T20:17:21.764Z,68.04
2024-02-14T20:20:51.336Z,68.20
2024-02-14T20:27:06.657Z,68.39
2024-02-14T20:30:47.060Z,68.57
2024-02-14T20:34:08.100Z,68.57
2024-02-14T20:38:44.833Z,68.81
2024-02-14T20:42:45.441Z,68.98
2024-02-14T20:46:37.330Z,68.79
2024-02-14T20:54:28.834Z,68.82
2024-02-14T20:57:17.544Z,68.90
2024-02-14T21:00:28.686Z,69.07
2024-02-14T21:03:49.190Z,69.36
2024-02-14T21:52:37.147Z,67.51
2024-02-14T22:01:18.282Z,68.05
2024-02-14T22:05:51.663Z,68.02
2024-02-14T22:14:47.747Z,68.47
2024-02-14T22:19:15.760Z,68.76
2024-02-14T22:24:02.152Z,69.04
2024-02-14T22:32:51.690Z,69.59
2024-02-14T22:37:26.233Z,69.47
2024-02-14T22:42:05.096Z,69.53
2024-02-14T22:55:59.085Z,69.85
2024-02-14T23:00:28.095Z,69.81
2024-02-14T23:05:07.108Z,69.70
2024-02-14T23:09:43.021Z,69.63
2024-02-14T23:14:25.603Z,70.00
2024-02-14T23:19:01.779Z,70.10
2024-02-14T23:23:11.895Z,69.95
2024-02-14T23:32:29.450Z,70.30
2024-02-14T23:36:59.280Z,70.32
2024-02-14T23:41:29.575Z,70.31
2024-02-14T23:50:55.565Z,70.69
2024-02-14T23:59:52.827Z,70.71
